Time;durP1;ratioP1;P1;durP2;ratioP2;P2;SDS_P1;SDS_P2;PMS_P1;PMS_P2;Temp;Humidity;BMP_temperature;BMP_pressure;BME280_temperature;BME280_humidity;BME280_pressure;Samples;Min_cycle;Max_cycle;Signal;HPM_P1;HPM_P2
2020/12/30 00:01:00;;;;;;;15.98;11.45;;;4.40;99.90;;;;;;5003613;28;20051;-79
2020/12/30 00:03:27;;;;;;;16.50;11.10;;;4.40;99.90;;;;;;4999777;28;20050;-79
2020/12/30 00:05:53;;;;;;;17.70;10.98;;;4.40;99.90;;;;;;5000982;28;20427;-80
2020/12/30 00:08:19;;;;;;;14.75;10.80;;;4.50;99.90;;;;;;5006399;28;20051;-79
2020/12/30 00:10:47;;;;;;;14.98;10.35;;;4.50;99.90;;;;;;5006056;28;20082;-78
2020/12/30 00:13:13;;;;;;;13.60;10.63;;;4.50;99.90;;;;;;5006785;28;20055;-79
2020/12/30 00:15:40;;;;;;;16.25;11.07;;;4.50;99.90;;;;;;5010232;28;20050;-78
2020/12/30 00:18:06;;;;;;;15.27;10.20;;;4.50;99.90;;;;;;5009542;28;20057;-79
2020/12/30 00:20:32;;;;;;;15.32;10.52;;;4.40;99.90;;;;;;5006993;28;20047;-81
2020/12/30 00:22:59;;;;;;;17.70;11.00;;;4.40;99.90;;;;;;4999863;28;20089;-76
2020/12/30 00:25:27;;;;;;;15.98;10.90;;;4.40;99.90;;;;;;4999155;28;20154;-80
2020/12/30 00:27:54;;;;;;;15.82;10.70;;;4.50;99.90;;;;;;5001041;28;20217;-79
2020/12/30 00:30:21;;;;;;;17.33;11.85;;;4.50;99.90;;;;;;5004193;28;20434;-79
2020/12/30 00:32:48;;;;;;;17.08;11.20;;;4.50;99.90;;;;;;5005855;28;20077;-79
2020/12/30 00:35:16;;;;;;;17.60;12.15;;;4.50;99.90;;;;;;5003589;28;20414;-79
2020/12/30 00:37:43;;;;;;;19.77;11.60;;;4.40;99.90;;;;;;4996644;28;20078;-80
2020/12/30 00:40:10;;;;;;;20.08;12.13;;;4.30;99.90;;;;;;4998724;28;20058;-81
2020/12/30 00:42:38;;;;;;;22.75;12.93;;;4.20;99.90;;;;;;4996414;28;20530;-81
2020/12/30 00:45:08;;;;;;;20.20;13.23;;;4.20;99.90;;;;;;4995671;28;20106;-80
2020/12/30 00:47:34;;;;;;;17.77;12.25;;;4.20;99.90;;;;;;4996925;28;20152;-79
2020/12/30 00:50:01;;;;;;;15.23;10.75;;;4.10;99.90;;;;;;4997039;28;20111;-78
2020/12/30 00:52:27;;;;;;;14.57;10.95;;;4.00;99.90;;;;;;4998899;28;20491;-78
2020/12/30 00:54:54;;;;;;;16.02;10.80;;;4.10;99.90;;;;;;4999089;28;20136;-79
2020/12/30 00:57:21;;;;;;;15.43;10.18;;;4.10;99.90;;;;;;4999832;28;20097;-79
2020/12/30 00:59:47;;;;;;;13.48;9.98;;;4.10;99.90;;;;;;4999232;28;20515;-79
2020/12/30 01:02:14;;;;;;;13.18;9.68;;;4.10;99.90;;;;;;4998349;28;20086;-78
2020/12/30 01:04:41;;;;;;;15.63;9.82;;;4.20;99.90;;;;;;5000139;28;20081;-80
2020/12/30 01:07:08;;;;;;;15.80;10.23;;;4.30;99.90;;;;;;5003596;28;20426;-79
2020/12/30 01:09:34;;;;;;;14.88;10.23;;;4.30;99.90;;;;;;5005910;28;20082;-80
2020/12/30 01:12:01;;;;;;;14.50;10.40;;;4.20;99.90;;;;;;4999928;28;20193;-79
2020/12/30 01:14:28;;;;;;;14.57;10.35;;;4.30;99.90;;;;;;4997281;28;20518;-77
2020/12/30 01:16:55;;;;;;;16.08;10.48;;;4.30;99.90;;;;;;5001486;28;20086;-79
2020/12/30 01:19:22;;;;;;;14.20;9.95;;;4.30;99.90;;;;;;5003643;28;20046;-80
2020/12/30 01:21:49;;;;;;;14.20;9.82;;;4.40;99.90;;;;;;5001260;28;20081;-78
2020/12/30 01:24:16;;;;;;;15.07;10.40;;;4.30;99.90;;;;;;5002398;28;20085;-79
2020/12/30 01:26:43;;;;;;;15.20;10.50;;;4.30;99.90;;;;;;5003567;28;20467;-79
2020/12/30 01:29:10;;;;;;;16.65;10.55;;;4.30;99.90;;;;;;5000724;28;20078;-79
2020/12/30 01:31:36;;;;;;;15.95;10.88;;;4.20;99.90;;;;;;5000676;28;20125;-77
2020/12/30 01:34:04;;;;;;;15.75;11.32;;;4.10;99.90;;;;;;5037846;23;20084;-81
2020/12/30 01:36:31;;;;;;;18.35;11.57;;;4.00;99.90;;;;;;5006291;28;20082;-81
2020/12/30 01:38:58;;;;;;;21.33;12.02;;;3.90;99.90;;;;;;5002603;28;20088;-80
2020/12/30 01:41:25;;;;;;;18.65;11.63;;;3.90;99.90;;;;;;5018424;28;20169;-80
2020/12/30 01:44:03;;;;;;;17.90;11.48;;;3.90;99.90;;;;;;5008045;28;20088;-81
2020/12/30 01:46:40;;;;;;;17.60;11.88;;;3.90;99.90;;;;;;5003025;28;20125;-81
2020/12/30 01:49:09;;;;;;;17.38;11.18;;;3.90;99.90;;;;;;4987411;28;20133;-79
2020/12/30 01:51:39;;;;;;;16.65;11.18;;;3.90;99.90;;;;;;5001354;28;20137;-81
2020/12/30 01:54:06;;;;;;;16.70;11.68;;;4.00;99.90;;;;;;4993982;28;20133;-82
2020/12/30 01:56:34;;;;;;;16.08;11.32;;;4.00;99.90;;;;;;5001265;28;20129;-80
2020/12/30 01:59:06;;;;;;;18.30;12.40;;;4.10;99.90;;;;;;5000596;28;20065;-80
2020/12/30 02:01:36;;;;;;;19.70;11.70;;;4.20;99.90;;;;;;5001606;28;20146;-80
2020/12/30 02:04:04;;;;;;;19.13;11.40;;;4.20;99.90;;;;;;5002709;28;20082;-80
2020/12/30 02:06:31;;;;;;;15.57;10.88;;;4.30;99.90;;;;;;4998924;28;20118;-80
2020/12/30 02:08:59;;;;;;;21.05;10.95;;;4.20;99.90;;;;;;5003190;28;20081;-80
2020/12/30 02:11:26;;;;;;;17.95;11.65;;;4.30;99.90;;;;;;5004369;28;20074;-80
2020/12/30 02:14:01;;;;;;;17.85;11.45;;;4.30;99.90;;;;;;5003424;28;20091;-81
2020/12/30 02:16:28;;;;;;;15.88;10.85;;;4.30;99.90;;;;;;5002267;28;20074;-81
2020/12/30 02:18:54;;;;;;;17.27;11.95;;;4.30;99.90;;;;;;5001764;28;20089;-81
2020/12/30 02:21:21;;;;;;;18.30;11.23;;;4.30;99.90;;;;;;5002061;28;20142;-81
2020/12/30 02:23:49;;;;;;;18.52;11.70;;;4.20;99.90;;;;;;4998038;28;20137;-80
2020/12/30 02:26:16;;;;;;;16.00;10.95;;;4.20;99.90;;;;;;5003084;28;20133;-80
2020/12/30 02:28:43;;;;;;;17.40;11.52;;;4.10;99.90;;;;;;5004263;28;20074;-81
2020/12/30 02:31:10;;;;;;;17.55;11.75;;;4.00;99.90;;;;;;5004651;28;20050;-80
2020/12/30 02:33:36;;;;;;;17.52;12.20;;;4.00;99.90;;;;;;5003417;28;20084;-80
2020/12/30 02:36:02;;;;;;;17.00;11.63;;;4.00;99.90;;;;;;5003442;28;20078;-80
2020/12/30 02:38:29;;;;;;;21.40;11.68;;;4.00;99.90;;;;;;5002860;28;20114;-80
2020/12/30 02:40:59;;;;;;;17.70;11.50;;;4.00;99.90;;;;;;5000983;28;20081;-80
2020/12/30 02:43:27;;;;;;;16.98;11.77;;;4.00;99.90;;;;;;5003546;28;20086;-80
2020/12/30 02:45:53;;;;;;;18.75;12.35;;;4.00;99.90;;;;;;5004437;28;20042;-80
2020/12/30 02:48:20;;;;;;;17.35;11.48;;;4.00;99.90;;;;;;5003420;28;20078;-81
2020/12/30 02:50:46;;;;;;;18.40;12.00;;;4.10;99.90;;;;;;5005924;28;20050;-81
2020/12/30 02:53:15;;;;;;;16.17;11.45;;;4.10;99.90;;;;;;5006833;28;20302;-82
2020/12/30 02:55:41;;;;;;;17.95;11.88;;;4.10;99.90;;;;;;5005336;28;20054;-81
2020/12/30 02:58:08;;;;;;;17.05;12.25;;;4.10;99.90;;;;;;5009385;28;20077;-82
2020/12/30 03:00:35;;;;;;;17.30;11.55;;;4.20;99.90;;;;;;5009275;28;20419;-82
2020/12/30 03:03:01;;;;;;;17.52;12.57;;;4.20;99.90;;;;;;5004150;28;20108;-81
2020/12/30 03:05:28;;;;;;;18.65;11.50;;;4.20;99.90;;;;;;5003197;28;20073;-81
2020/12/30 03:07:54;;;;;;;16.00;10.98;;;4.20;99.90;;;;;;5004340;28;20050;-82
2020/12/30 03:10:20;;;;;;;16.05;10.45;;;4.30;99.90;;;;;;5001302;28;20482;-82
2020/12/30 03:12:47;;;;;;;17.10;10.55;;;4.30;99.90;;;;;;4997779;28;20110;-83
2020/12/30 03:15:13;;;;;;;19.88;12.00;;;4.30;99.90;;;;;;5001221;28;20106;-82
2020/12/30 03:17:40;;;;;;;17.20;12.30;;;4.30;99.90;;;;;;5001540;28;20142;-82
2020/12/30 03:20:07;;;;;;;16.48;11.40;;;4.30;99.90;;;;;;5001971;28;20182;-81
2020/12/30 03:22:33;;;;;;;17.55;11.63;;;4.20;99.90;;;;;;5003672;28;20465;-81
2020/12/30 03:24:59;;;;;;;16.10;11.27;;;4.20;99.90;;;;;;5003928;28;20499;-81
2020/12/30 03:27:26;;;;;;;19.30;11.73;;;4.20;99.90;;;;;;5004191;28;20057;-80
2020/12/30 03:29:52;;;;;;;17.13;11.52;;;4.10;99.90;;;;;;5003304;28;20530;-81
2020/12/30 03:32:18;;;;;;;15.82;11.15;;;4.20;99.90;;;;;;5003640;28;20085;-81
2020/12/30 03:34:46;;;;;;;18.88;12.40;;;4.20;99.90;;;;;;5001879;28;20484;-81
2020/12/30 03:37:12;;;;;;;17.13;12.07;;;4.20;99.90;;;;;;5004055;28;20503;-80
2020/12/30 03:39:38;;;;;;;16.45;11.82;;;4.20;99.90;;;;;;5004611;28;20078;-80
2020/12/30 03:42:06;;;;;;;19.63;12.25;;;4.20;99.90;;;;;;5004144;28;20513;-80
2020/12/30 03:44:33;;;;;;;17.00;12.13;;;4.20;99.90;;;;;;5005839;28;20068;-80
2020/12/30 03:46:59;;;;;;;17.80;12.35;;;4.20;99.90;;;;;;5003379;28;20082;-80
2020/12/30 03:49:26;;;;;;;16.77;12.27;;;4.10;99.90;;;;;;5003993;28;20094;-81
2020/12/30 03:51:53;;;;;;;17.25;12.65;;;4.20;99.90;;;;;;5001847;28;20081;-82
2020/12/30 03:54:19;;;;;;;18.05;12.25;;;4.10;99.90;;;;;;5000308;28;20452;-82
2020/12/30 03:56:46;;;;;;;18.77;12.98;;;4.20;99.90;;;;;;5000423;28;20504;-83
2020/12/30 03:59:12;;;;;;;19.20;12.85;;;4.10;99.90;;;;;;5001937;28;20415;-83
2020/12/30 04:01:39;;;;;;;19.95;13.30;;;4.10;99.90;;;;;;4999655;28;20133;-82
2020/12/30 04:04:05;;;;;;;17.88;12.20;;;4.10;99.90;;;;;;4998921;28;20047;-83
2020/12/30 04:06:32;;;;;;;18.75;12.75;;;4.10;99.90;;;;;;5002119;28;20085;-82
2020/12/30 04:09:00;;;;;;;19.75;12.77;;;4.00;99.90;;;;;;5002406;28;20054;-82
2020/12/30 04:11:26;;;;;;;21.92;13.52;;;3.90;99.90;;;;;;5000460;28;20089;-82
2020/12/30 04:13:52;;;;;;;18.55;12.07;;;3.90;99.90;;;;;;5001388;28;20082;-82
2020/12/30 04:16:22;;;;;;;17.95;13.05;;;3.80;99.90;;;;;;5001503;28;20094;-82
2020/12/30 04:18:49;;;;;;;20.65;13.52;;;3.80;99.90;;;;;;4998141;28;20491;-82
2020/12/30 04:21:19;;;;;;;20.40;13.05;;;3.70;99.90;;;;;;5001885;28;20123;-82
2020/12/30 04:23:45;;;;;;;22.17;13.52;;;3.60;99.90;;;;;;5003016;28;20072;-82
2020/12/30 04:26:13;;;;;;;21.77;13.55;;;3.50;99.90;;;;;;5006533;28;20061;-82
2020/12/30 04:28:40;;;;;;;21.70;13.50;;;3.40;99.90;;;;;;5003985;28;20058;-82
2020/12/30 04:31:10;;;;;;;18.33;13.50;;;3.40;99.90;;;;;;5005323;28;20089;-81
2020/12/30 04:33:36;;;;;;;21.77;13.77;;;3.30;99.90;;;;;;5005491;28;20089;-81
2020/12/30 04:36:03;;;;;;;22.17;14.40;;;3.30;99.90;;;;;;5000077;28;20129;-81
2020/12/30 04:38:31;;;;;;;20.83;13.77;;;3.20;99.90;;;;;;5005402;28;20050;-82
2020/12/30 04:40:58;;;;;;;23.27;14.57;;;3.10;99.90;;;;;;5006408;28;20054;-81
2020/12/30 04:43:27;;;;;;;27.67;14.65;;;3.10;99.90;;;;;;5006516;28;20081;-82
2020/12/30 04:45:55;;;;;;;23.38;14.70;;;3.10;99.90;;;;;;5007117;28;20081;-82
2020/12/30 04:48:22;;;;;;;22.90;14.32;;;3.10;99.90;;;;;;5006617;28;20074;-83
2020/12/30 04:50:48;;;;;;;24.02;15.13;;;3.00;99.90;;;;;;5004752;28;20077;-82
2020/12/30 04:53:15;;;;;;;24.00;14.98;;;3.00;99.90;;;;;;5003165;28;20129;-82
2020/12/30 04:55:42;;;;;;;22.38;14.73;;;3.00;99.90;;;;;;5008000;28;20089;-83
2020/12/30 04:58:09;;;;;;;21.45;13.95;;;2.90;99.90;;;;;;5007711;28;20077;-83
2020/12/30 05:00:38;;;;;;;25.67;15.15;;;2.90;99.90;;;;;;5003594;28;20050;-83
2020/12/30 05:03:09;;;;;;;23.02;14.38;;;2.90;99.90;;;;;;4999050;28;20129;-83
2020/12/30 05:05:37;;;;;;;23.10;14.25;;;2.90;99.90;;;;;;4999055;28;20133;-81
2020/12/30 05:08:07;;;;;;;23.38;14.05;;;2.90;99.90;;;;;;4998772;28;20093;-81
2020/12/30 05:10:36;;;;;;;21.20;14.30;;;3.00;99.90;;;;;;4999046;28;20319;-82
2020/12/30 05:13:02;;;;;;;22.67;13.85;;;3.00;99.90;;;;;;4997903;28;20129;-82
2020/12/30 05:15:28;;;;;;;22.65;13.98;;;3.00;99.90;;;;;;5007797;28;20082;-82
2020/12/30 05:17:56;;;;;;;24.00;13.38;;;3.00;99.90;;;;;;5005417;28;20085;-82
2020/12/30 05:20:24;;;;;;;22.17;13.63;;;3.00;99.90;;;;;;5004549;28;20089;-82
2020/12/30 05:22:53;;;;;;;25.02;13.95;;;3.00;99.90;;;;;;5003302;28;20097;-82
2020/12/30 05:25:25;;;;;;;22.17;13.43;;;3.00;99.90;;;;;;5000041;28;20097;-82
2020/12/30 05:27:52;;;;;;;22.30;14.38;;;3.00;99.90;;;;;;5003111;28;20113;-82
2020/12/30 05:30:20;;;;;;;22.23;13.38;;;3.00;99.90;;;;;;5003571;28;20106;-82
2020/12/30 05:32:52;;;;;;;21.40;13.35;;;2.90;99.90;;;;;;5002724;28;20050;-82
2020/12/30 05:35:19;;;;;;;22.25;13.50;;;2.90;99.90;;;;;;5003135;28;20141;-82
2020/12/30 05:37:47;;;;;;;23.75;13.80;;;2.90;99.90;;;;;;5003173;28;20057;-82
2020/12/30 05:40:20;;;;;;;20.52;13.70;;;2.90;99.90;;;;;;4999854;28;20133;-80
2020/12/30 05:42:47;;;;;;;21.00;13.43;;;2.80;99.90;;;;;;4982569;28;20065;-81
2020/12/30 05:45:18;;;;;;;21.98;13.68;;;2.80;99.90;;;;;;4983883;28;20202;-81
2020/12/30 05:47:45;;;;;;;21.42;13.60;;;2.80;99.90;;;;;;4984718;28;20087;-81
2020/12/30 05:50:12;;;;;;;21.20;13.85;;;2.70;99.90;;;;;;4984543;28;20570;-81
2020/12/30 05:52:40;;;;;;;22.85;14.13;;;2.50;99.90;;;;;;4985365;28;20090;-81
2020/12/30 05:55:09;;;;;;;22.05;14.65;;;2.50;99.90;;;;;;4987775;28;20070;-81
2020/12/30 05:57:37;;;;;;;24.05;14.30;;;2.40;99.90;;;;;;4986427;28;20053;-80
2020/12/30 06:00:09;;;;;;;25.52;15.13;;;2.30;99.90;;;;;;4984495;28;20062;-81
2020/12/30 06:02:40;;;;;;;25.70;15.02;;;2.30;99.90;;;;;;4984128;28;20054;-81
2020/12/30 06:05:14;;;;;;;24.48;15.35;;;2.30;99.90;;;;;;4990293;28;20066;-81
2020/12/30 06:07:43;;;;;;;24.35;14.43;;;2.30;99.90;;;;;;4982918;28;20059;-81
2020/12/30 06:10:11;;;;;;;23.42;14.90;;;2.30;99.90;;;;;;4994293;28;20055;-80
2020/12/30 06:12:48;;;;;;;26.85;13.90;;;2.30;99.90;;;;;;4985650;28;20061;-82
2020/12/30 06:15:17;;;;;;;24.55;15.15;;;2.20;99.90;;;;;;4978296;28;20130;-81
2020/12/30 06:17:52;;;;;;;25.05;15.63;;;2.20;99.90;;;;;;4980385;28;20118;-81
2020/12/30 06:20:22;;;;;;;22.75;14.52;;;2.20;99.90;;;;;;4983088;28;20133;-82
2020/12/30 06:22:57;;;;;;;22.83;14.50;;;2.20;99.90;;;;;;4982732;28;20419;-81
2020/12/30 06:25:28;;;;;;;23.13;14.30;;;2.20;99.90;;;;;;4979786;28;20514;-81
2020/12/30 06:27:55;;;;;;;24.58;14.32;;;2.20;99.90;;;;;;4977143;28;20578;-81
2020/12/30 06:30:22;;;;;;;23.73;13.77;;;2.20;99.90;;;;;;4976515;28;20051;-81
2020/12/30 06:32:50;;;;;;;24.00;14.75;;;2.10;99.90;;;;;;4976089;28;20078;-81
2020/12/30 06:35:25;;;;;;;22.00;13.65;;;2.10;99.90;;;;;;4976187;28;20138;-81
2020/12/30 06:37:52;;;;;;;21.15;13.05;;;2.00;99.90;;;;;;4976417;28;20099;-81
2020/12/30 06:40:30;;;;;;;23.15;14.30;;;2.00;99.90;;;;;;4975636;28;20452;-81
2020/12/30 06:42:58;;;;;;;27.10;14.50;;;2.00;99.90;;;;;;4978263;28;20051;-81
2020/12/30 06:45:51;;;;;;;25.70;15.02;;;2.00;99.90;;;;;;4980119;28;20082;-82
2020/12/30 06:48:19;;;;;;;20.20;11.15;;;1.90;99.90;;;;;;4978296;28;20046;-82
2020/12/30 06:50:46;;;;;;;25.02;14.30;;;1.90;99.90;;;;;;4982008;28;20154;-80
2020/12/30 06:53:30;;;;;;;24.20;15.60;;;1.90;99.90;;;;;;4983216;28;20054;-82
2020/12/30 06:55:58;;;;;;;28.35;15.20;;;1.90;99.90;;;;;;4981935;28;20081;-81
2020/12/30 06:58:50;;;;;;;28.48;16.13;;;1.90;99.90;;;;;;4962166;28;20058;-80
2020/12/30 07:01:18;;;;;;;28.08;16.00;;;1.90;99.90;;;;;;4961122;28;20512;-81
2020/12/30 07:03:45;;;;;;;28.52;15.98;;;2.00;99.90;;;;;;4960527;28;20083;-81
2020/12/30 07:06:33;;;;;;;29.50;15.95;;;2.00;99.90;;;;;;4961888;28;20082;-81
2020/12/30 07:09:02;;;;;;;28.15;16.52;;;2.00;99.90;;;;;;4961618;28;20130;-81
2020/12/30 07:11:44;;;;;;;32.90;17.38;;;2.00;99.90;;;;;;4962382;28;20105;-80
2020/12/30 07:14:11;;;;;;;29.65;16.77;;;1.90;99.90;;;;;;4962177;28;20119;-81
2020/12/30 07:16:39;;;;;;;30.05;16.67;;;1.90;99.90;;;;;;4964757;28;20530;-82
2020/12/30 07:19:14;;;;;;;27.00;16.08;;;2.00;99.90;;;;;;4962701;28;20499;-82
2020/12/30 07:21:59;;;;;;;35.42;18.13;;;2.10;99.90;;;;;;4963297;28;20504;-81
2020/12/30 07:24:28;;;;;;;35.53;17.50;;;2.00;99.90;;;;;;4967165;28;20075;-82
2020/12/30 07:26:59;;;;;;;35.03;17.77;;;2.10;99.90;;;;;;4965333;28;20090;-82
2020/12/30 07:29:26;;;;;;;29.05;17.48;;;2.20;99.90;;;;;;4966869;28;20051;-82
2020/12/30 07:31:55;;;;;;;31.77;17.63;;;2.30;99.90;;;;;;4967035;28;20070;-82
2020/12/30 07:34:24;;;;;;;32.67;17.25;;;2.30;99.90;;;;;;5010180;23;20503;-80
2020/12/30 07:36:51;;;;;;;36.10;18.88;;;2.40;99.90;;;;;;4995039;28;20146;-80
2020/12/30 07:39:23;;;;;;;29.75;16.48;;;2.40;99.90;;;;;;4995591;28;20145;-80
2020/12/30 07:41:50;;;;;;;29.38;16.10;;;2.50;99.90;;;;;;4996438;28;20088;-78
2020/12/30 07:44:17;;;;;;;30.20;17.10;;;2.40;99.90;;;;;;4993217;28;20133;-78
2020/12/30 07:46:44;;;;;;;28.00;16.13;;;2.40;99.90;;;;;;4994587;28;20133;-80
2020/12/30 07:49:12;;;;;;;30.83;17.30;;;2.50;99.90;;;;;;4995075;28;20134;-80
2020/12/30 07:51:46;;;;;;;30.90;17.23;;;2.50;99.90;;;;;;4993567;28;20570;-79
2020/12/30 07:54:14;;;;;;;38.20;18.90;;;2.50;99.90;;;;;;4996499;28;20046;-83
2020/12/30 07:56:40;;;;;;;32.03;16.65;;;2.50;99.90;;;;;;4995066;28;20058;-79
2020/12/30 07:59:07;;;;;;;32.00;17.98;;;2.50;99.90;;;;;;4997498;28;20058;-80
2020/12/30 08:01:34;;;;;;;32.15;17.25;;;2.60;99.90;;;;;;4997807;28;20054;-82
2020/12/30 08:04:08;;;;;;;33.38;20.40;;;2.60;99.90;;;;;;4999495;28;20074;-80
2020/12/30 08:06:44;;;;;;;34.90;19.38;;;2.60;99.90;;;;;;4997357;28;20129;-80
2020/12/30 08:09:12;;;;;;;32.00;18.95;;;2.70;99.90;;;;;;4997715;28;20122;-81
2020/12/30 08:11:47;;;;;;;33.53;18.38;;;2.70;99.90;;;;;;4997543;28;20066;-82
2020/12/30 08:14:14;;;;;;;34.28;18.67;;;2.80;99.90;;;;;;5018306;28;20128;-82
2020/12/30 08:16:53;;;;;;;30.95;16.25;;;2.80;99.90;;;;;;5020614;28;20089;-80
2020/12/30 08:19:27;;;;;;;30.45;17.98;;;2.90;99.90;;;;;;5020263;28;20080;-83
2020/12/30 08:22:02;;;;;;;30.75;16.55;;;2.90;99.90;;;;;;5021897;28;20057;-83
2020/12/30 08:24:29;;;;;;;34.75;17.40;;;3.00;99.90;;;;;;5022963;28;20042;-80
2020/12/30 08:26:57;;;;;;;32.85;17.02;;;3.00;99.90;;;;;;5020757;28;20053;-82
2020/12/30 08:29:27;;;;;;;30.55;17.90;;;3.10;99.90;;;;;;5020937;28;20505;-82
2020/12/30 08:31:57;;;;;;;26.88;16.85;;;3.10;99.90;;;;;;5020711;28;20505;-81
2020/12/30 08:34:28;;;;;;;30.42;17.35;;;3.20;99.90;;;;;;5021221;28;20484;-82
2020/12/30 08:37:02;;;;;;;29.77;16.77;;;3.10;99.90;;;;;;5021157;28;20050;-81
2020/12/30 08:39:30;;;;;;;29.60;17.30;;;3.20;99.90;;;;;;5019752;28;20081;-82
2020/12/30 08:41:59;;;;;;;25.90;16.77;;;3.30;99.90;;;;;;5020978;28;20132;-82
2020/12/30 08:44:26;;;;;;;26.30;15.65;;;3.40;99.90;;;;;;5020753;28;20609;-82
2020/12/30 08:46:57;;;;;;;27.88;16.17;;;3.50;99.90;;;;;;5020750;28;20049;-81
2020/12/30 08:49:24;;;;;;;25.27;15.93;;;3.60;99.90;;;;;;5020515;28;20061;-81
2020/12/30 08:51:52;;;;;;;24.83;15.75;;;3.80;99.90;;;;;;5019110;28;20074;-81
2020/12/30 08:54:18;;;;;;;27.13;15.60;;;3.90;99.90;;;;;;5020467;28;20077;-81
2020/12/30 08:56:46;;;;;;;23.88;14.70;;;3.90;99.90;;;;;;5023178;28;20054;-85
2020/12/30 08:59:23;;;;;;;26.55;16.35;;;3.90;99.90;;;;;;5024411;28;20054;-85
2020/12/30 09:01:49;;;;;;;25.50;15.63;;;3.90;99.90;;;;;;5026228;28;20092;-85
2020/12/30 09:04:17;;;;;;;22.17;13.60;;;3.90;99.90;;;;;;5026171;28;20463;-85
2020/12/30 09:06:50;;;;;;;28.50;15.23;;;3.90;99.90;;;;;;5026304;28;20141;-85
2020/12/30 09:09:19;;;;;;;23.65;15.07;;;4.00;99.90;;;;;;5025342;28;20109;-85
2020/12/30 09:11:46;;;;;;;23.67;14.45;;;4.00;99.90;;;;;;5026311;28;20050;-84
2020/12/30 09:14:21;;;;;;;24.67;14.18;;;4.10;99.90;;;;;;5029103;28;20054;-85
2020/12/30 09:16:55;;;;;;;24.70;15.00;;;4.10;99.90;;;;;;5029962;28;20046;-85
2020/12/30 09:19:23;;;;;;;26.48;16.00;;;4.20;99.90;;;;;;5029914;28;20053;-84
2020/12/30 09:21:51;;;;;;;24.10;13.93;;;4.30;99.90;;;;;;5030711;28;20086;-85
2020/12/30 09:24:23;;;;;;;25.88;16.23;;;4.40;99.90;;;;;;5028118;28;20149;-83
2020/12/30 09:26:49;;;;;;;25.77;15.35;;;4.40;99.90;;;;;;5027596;28;20076;-85
2020/12/30 09:29:20;;;;;;;24.88;16.10;;;4.50;99.90;;;;;;5032246;28;20054;-85
2020/12/30 09:31:56;;;;;;;26.10;16.08;;;4.60;99.90;;;;;;5031085;28;20446;-85
2020/12/30 09:34:26;;;;;;;25.65;16.13;;;4.70;99.90;;;;;;5031590;28;20077;-83
2020/12/30 09:36:54;;;;;;;33.45;16.88;;;4.80;99.90;;;;;;5031251;28;20066;-84
2020/12/30 09:39:21;;;;;;;23.98;14.50;;;4.90;99.90;;;;;;5030380;28;20050;-85
2020/12/30 09:41:47;;;;;;;26.77;14.68;;;4.90;99.90;;;;;;5031268;28;20233;-84
2020/12/30 09:44:14;;;;;;;26.30;15.93;;;5.00;99.90;;;;;;5030558;28;20050;-85
2020/12/30 09:46:49;;;;;;;23.00;15.05;;;5.00;99.90;;;;;;5029405;28;20065;-85
2020/12/30 09:49:16;;;;;;;24.55;14.43;;;5.00;99.90;;;;;;5028797;28;20065;-85
2020/12/30 09:51:43;;;;;;;23.98;13.73;;;5.20;99.90;;;;;;5029096;28;20058;-84
2020/12/30 09:54:10;;;;;;;20.75;13.45;;;5.10;99.90;;;;;;5029427;28;20053;-84
2020/12/30 09:56:36;;;;;;;25.45;14.25;;;5.20;99.90;;;;;;5030617;28;20061;-85
2020/12/30 09:59:03;;;;;;;24.02;14.07;;;5.30;99.90;;;;;;5028446;28;20046;-85
2020/12/30 10:01:30;;;;;;;20.65;13.20;;;5.20;99.90;;;;;;5026102;28;20050;-83
2020/12/30 10:03:58;;;;;;;19.40;13.10;;;5.30;99.90;;;;;;5022858;28;20053;-85
2020/12/30 10:06:24;;;;;;;19.95;13.10;;;5.30;99.90;;;;;;5025573;28;20065;-83
2020/12/30 10:08:51;;;;;;;19.60;12.85;;;5.40;99.90;;;;;;5025738;28;20073;-85
2020/12/30 10:11:19;;;;;;;19.58;13.23;;;5.40;99.90;;;;;;5023583;28;20073;-80
2020/12/30 10:13:45;;;;;;;19.02;12.90;;;5.40;99.90;;;;;;5021663;28;20077;-81
2020/12/30 10:16:12;;;;;;;21.55;13.25;;;5.40;99.90;;;;;;5021594;28;20049;-81
2020/12/30 10:18:38;;;;;;;19.38;11.85;;;5.40;99.90;;;;;;5019789;28;20046;-81
2020/12/30 10:21:05;;;;;;;19.85;12.63;;;5.40;99.90;;;;;;5027676;28;20049;-79
2020/12/30 10:23:31;;;;;;;17.88;12.32;;;5.40;99.90;;;;;;5026985;28;20549;-80
2020/12/30 10:25:58;;;;;;;20.00;12.55;;;5.50;99.90;;;;;;5028228;28;20049;-80
2020/12/30 10:28:25;;;;;;;31.65;17.10;;;5.50;99.90;;;;;;5024209;28;20077;-81
2020/12/30 10:30:51;;;;;;;19.27;12.50;;;5.60;99.90;;;;;;5023730;28;20089;-81
2020/12/30 10:33:17;;;;;;;18.80;12.80;;;5.70;99.90;;;;;;5023214;28;20102;-81
2020/12/30 10:35:44;;;;;;;20.30;12.85;;;5.80;99.90;;;;;;5024988;28;20100;-81
2020/12/30 10:38:10;;;;;;;19.60;12.48;;;5.70;99.90;;;;;;5024790;28;20081;-81
2020/12/30 10:40:37;;;;;;;18.63;12.38;;;5.80;99.90;;;;;;5025304;28;20093;-81
2020/12/30 10:43:04;;;;;;;17.88;11.60;;;6.00;99.90;;;;;;5023595;28;20078;-80
2020/12/30 10:45:31;;;;;;;19.52;12.77;;;6.00;99.90;;;;;;5024927;28;20085;-81
2020/12/30 10:47:57;;;;;;;19.23;12.10;;;6.10;99.90;;;;;;5022101;28;20100;-81
2020/12/30 10:50:24;;;;;;;15.43;11.02;;;6.20;99.90;;;;;;5021236;28;20518;-81
2020/12/30 10:52:51;;;;;;;19.70;13.10;;;6.30;99.90;;;;;;5020376;28;20053;-82
2020/12/30 10:55:18;;;;;;;20.17;12.95;;;6.40;99.90;;;;;;5020055;28;20422;-82
2020/12/30 10:57:45;;;;;;;19.15;12.27;;;6.40;99.90;;;;;;5019326;28;20780;-80
2020/12/30 11:00:14;;;;;;;19.33;12.95;;;6.40;99.90;;;;;;5022095;28;20069;-81
2020/12/30 11:02:41;;;;;;;18.30;12.00;;;6.50;99.90;;;;;;5020167;28;20081;-80
2020/12/30 11:05:07;;;;;;;20.38;13.52;;;6.50;99.90;;;;;;5020407;28;20085;-81
2020/12/30 11:07:34;;;;;;;20.60;12.60;;;6.60;99.90;;;;;;5022030;28;20054;-81
2020/12/30 11:10:00;;;;;;;19.38;13.20;;;6.60;99.90;;;;;;5022647;28;20080;-80
2020/12/30 11:12:26;;;;;;;18.73;12.30;;;6.60;99.90;;;;;;5025644;28;20057;-79
2020/12/30 11:14:53;;;;;;;21.42;13.10;;;6.60;99.90;;;;;;5027448;28;20490;-80
2020/12/30 11:17:20;;;;;;;21.70;13.50;;;6.60;99.90;;;;;;5022052;28;20077;-79
2020/12/30 11:19:47;;;;;;;18.67;12.88;;;6.60;99.90;;;;;;5009556;28;20510;-80
2020/12/30 11:22:13;;;;;;;20.67;12.02;;;6.50;99.90;;;;;;5021358;28;20046;-80
2020/12/30 11:24:39;;;;;;;18.70;12.70;;;6.50;99.90;;;;;;5018048;28;20061;-79
2020/12/30 11:27:06;;;;;;;24.65;13.32;;;6.50;99.90;;;;;;5022068;28;20042;-81
2020/12/30 11:29:32;;;;;;;20.20;12.50;;;6.40;99.90;;;;;;5019101;28;20085;-81
2020/12/30 11:31:59;;;;;;;19.48;12.98;;;6.40;99.90;;;;;;5021684;28;20077;-82
2020/12/30 11:34:26;;;;;;;19.67;12.75;;;6.40;99.90;;;;;;5019022;28;20069;-85
2020/12/30 11:36:53;;;;;;;23.73;13.43;;;6.40;99.90;;;;;;5024325;28;20394;-84
2020/12/30 11:39:19;;;;;;;25.48;13.70;;;6.40;99.90;;;;;;5026868;28;20037;-83
2020/12/30 11:41:49;;;;;;;21.88;13.85;;;6.40;99.90;;;;;;5026842;28;20054;-85
2020/12/30 11:44:16;;;;;;;24.40;12.52;;;6.40;99.90;;;;;;5027036;28;20091;-85
2020/12/30 11:46:42;;;;;;;18.77;13.35;;;6.40;99.90;;;;;;5028858;28;20053;-86
2020/12/30 11:49:09;;;;;;;21.20;12.98;;;6.30;99.90;;;;;;5026975;28;20068;-85
2020/12/30 11:51:38;;;;;;;24.75;13.25;;;6.40;99.90;;;;;;5025573;28;20044;-81
2020/12/30 11:54:05;;;;;;;24.17;14.75;;;6.40;99.90;;;;;;5029176;28;20042;-83
2020/12/30 11:56:32;;;;;;;21.70;14.43;;;6.40;99.90;;;;;;5024765;28;20041;-82
2020/12/30 11:58:58;;;;;;;21.27;12.73;;;6.50;99.90;;;;;;5026091;28;20050;-84
2020/12/30 12:01:32;;;;;;;23.48;14.65;;;6.50;99.90;;;;;;5024295;28;20052;-83
2020/12/30 12:03:59;;;;;;;21.52;14.00;;;6.50;99.90;;;;;;5022817;28;20076;-83
2020/12/30 12:06:26;;;;;;;20.98;14.95;;;6.60;99.90;;;;;;5025707;28;20113;-84
2020/12/30 12:08:53;;;;;;;24.02;15.77;;;6.60;99.90;;;;;;5026631;28;20109;-84
2020/12/30 12:11:20;;;;;;;20.20;13.45;;;6.60;99.90;;;;;;5025419;28;20052;-81
2020/12/30 12:13:46;;;;;;;20.70;13.80;;;6.70;99.90;;;;;;5022785;28;20092;-83
2020/12/30 12:16:13;;;;;;;21.48;13.70;;;6.80;99.90;;;;;;5022868;28;20081;-83
2020/12/30 12:18:40;;;;;;;20.95;13.80;;;6.90;99.90;;;;;;5025652;28;20050;-85
2020/12/30 12:21:07;;;;;;;20.83;14.38;;;7.00;99.90;;;;;;5023326;28;20081;-82
2020/12/30 12:23:33;;;;;;;24.02;14.80;;;7.00;99.90;;;;;;5025070;28;20075;-82
2020/12/30 12:26:01;;;;;;;22.58;14.32;;;7.00;99.90;;;;;;5027101;28;20415;-83
2020/12/30 12:28:57;;;;;;;20.58;13.98;;;7.00;99.90;;;;;;5027777;28;20387;-84
2020/12/30 12:31:23;;;;;;;22.67;14.05;;;7.00;99.90;;;;;;5023183;28;20053;-82
2020/12/30 12:33:50;;;;;;;24.98;14.65;;;7.00;99.90;;;;;;5024138;28;20173;-83
2020/12/30 12:36:19;;;;;;;23.27;14.88;;;7.00;99.90;;;;;;5025207;28;20105;-85
2020/12/30 12:38:46;;;;;;;23.92;15.45;;;6.90;99.90;;;;;;5021812;28;20053;-86
2020/12/30 12:41:15;;;;;;;24.20;14.25;;;6.80;99.90;;;;;;5020463;28;20054;-81
2020/12/30 12:43:42;;;;;;;22.02;14.43;;;6.80;99.90;;;;;;5023054;28;20110;-83